This is the latest recevied weather packets stored in our database for station/object KJ7IVE-13. If no packets are shown the sender has not sent any weather packets the latest 10 day(s).
| Time | Temp. | Humidity | Pressure | Rain* | Wind** | Luminosity | Snow |
|---|---|---|---|---|---|---|---|
| 1777844605 | 24.44° C | 10% | 1013.6 hPa | 0 mm | - | 418 W/m² | - |
| 1777844000 | 24.44° C | 10% | 1013.7 hPa | 0 mm | - | 555 W/m² | - |
| 1777842788 | 25° C | 10% | 1013.9 hPa | 0 mm | - | 626 W/m² | - |
| 1777842488 | 23.89° C | 10% | 1014.1 hPa | 0 mm | - | 636 W/m² | - |
| 1777842185 | 23.89° C | 10% | 1014.3 hPa | 0 mm | - | 642 W/m² | - |
| 1777840663 | 23.33° C | 10% | 1014.5 hPa | 0 mm | - | 647 W/m² | - |
| 1777840360 | 22.78° C | 10% | 1014.4 hPa | 0 mm | - | 436 W/m² | - |
| 1777840057 | 22.78° C | 10% | 1014.8 hPa | 0 mm | - | 328 W/m² | - |
| 1777839755 | 22.78° C | 10% | 1014.9 hPa | 0 mm | - | 318 W/m² | - |
| 1777839453 | 22.78° C | 10% | 1015 hPa | 0 mm | - | 307 W/m² | - |
| 1777838846 | 22.78° C | 10% | 1015.3 hPa | 0 mm | - | 315 W/m² | - |
| 1777838543 | 22.78° C | 10% | 1015.2 hPa | 0 mm | - | 313 W/m² | - |
| 1777837634 | 22.78° C | 10% | 1015.5 hPa | 0 mm | - | 380 W/m² | - |
| 1777837026 | 22.78° C | 10% | 1015.5 hPa | 0 mm | - | 566 W/m² | - |
| 1777834592 | 22.22° C | 10% | 1015.9 hPa | 0 mm | - | 684 W/m² | - |
| 1777833679 | 22.78° C | 10% | 1016.1 hPa | 0 mm | - | 647 W/m² | - |
| 1777833375 | 22.78° C | 10% | 1016.4 hPa | 0 mm | - | 545 W/m² | - |
| 1777833073 | 22.78° C | 10% | 1016.4 hPa | 0 mm | - | 632 W/m² | - |
| 1777832771 | 22.22° C | 10% | 1016.2 hPa | 0 mm | - | 645 W/m² | - |
| 1777832469 | 22.22° C | 10% | 1016.5 hPa | 0 mm | - | 665 W/m² | - |
| 1777831861 | 23.33° C | 10% | 1016.4 hPa | 0 mm | - | 704 W/m² | - |
| 1777831251 | 21.67° C | 10% | 1016.4 hPa | 0 mm | - | 722 W/m² | - |
| 1777830948 | 21.67° C | 10% | 1016.7 hPa | 0 mm | - | 763 W/m² | - |
| 1777829128 | 21.67° C | 10% | 1016.8 hPa | 0 mm | - | 825 W/m² | - |
| 1777821552 | 15° C | 10% | 1017.8 hPa | 0 mm | - | 320 W/m² | - |
* Rain latest hour (hover to see other rain measurements)
** Current wind speed in m/s (hover to see current wind gust speed)